Time;durP1;ratioP1;P1;durP2;ratioP2;P2;SDS_P1;SDS_P2;PMS_P1;PMS_P2;Temp;Humidity;BMP_temperature;BMP_pressure;BME280_temperature;BME280_humidity;BME280_pressure;Samples;Min_cycle;Max_cycle;Signal;HPM_P1;HPM_P2
2021/12/05 00:18:48;;;;;;;3.50;2.27;;;;;;;;;;5045245;28;20453;-77
2021/12/05 00:21:39;;;;;;;2.77;2.57;;;;;;;;;;5050305;28;21062;-75
2021/12/05 00:24:10;;;;;;;4.50;2.00;;;;;;;;;;5050246;28;20543;-75
2021/12/05 00:26:39;;;;;;;5.90;2.23;;;;;;;;;;5050916;28;20441;-75
2021/12/05 00:29:13;;;;;;;5.47;2.77;;;;;;;;;;5049996;28;20456;-76
2021/12/05 00:31:55;;;;;;;7.67;2.80;;;;;;;;;;5050166;28;20452;-76
2021/12/05 00:40:35;;;;;;;4.00;2.47;;;;;;;;;;5049903;28;20444;-77
2021/12/05 00:48:52;;;;;;;8.43;2.23;;;;;;;;;;5054147;28;20417;-76
2021/12/05 00:57:35;;;;;;;3.87;2.40;;;;;;;;;;5053590;28;20436;-76
2021/12/05 01:11:32;;;;;;;9.00;2.90;;;;;;;;;;5053030;28;20420;-77
2021/12/05 01:14:09;;;;;;;2.93;2.47;;;;;;;;;;5052873;28;20486;-76
2021/12/05 01:16:39;;;;;;;4.80;2.43;;;;;;;;;;5053495;28;20829;-75
2021/12/05 01:19:08;;;;;;;4.73;2.00;;;;;;;;;;5053313;28;20429;-74
2021/12/05 01:21:36;;;;;;;4.15;2.20;;;;;;;;;;5053020;28;20548;-77
2021/12/05 01:24:14;;;;;;;4.37;2.20;;;;;;;;;;5052598;28;20718;-78
2021/12/05 01:26:48;;;;;;;2.70;1.90;;;;;;;;;;5053202;28;20433;-76
2021/12/05 01:29:28;;;;;;;4.80;2.43;;;;;;;;;;5052924;28;20191;-77
2021/12/05 01:32:07;;;;;;;2.40;1.90;;;;;;;;;;5053052;28;21116;-76
2021/12/05 01:34:48;;;;;;;3.67;2.87;;;;;;;;;;5052777;28;20534;-75
2021/12/05 01:37:26;;;;;;;4.23;2.00;;;;;;;;;;5052844;28;20453;-75
2021/12/05 01:40:08;;;;;;;2.60;2.10;;;;;;;;;;5053332;28;20463;-77
2021/12/05 01:43:05;;;;;;;4.20;2.50;;;;;;;;;;5053132;28;20456;-76
2021/12/05 01:51:41;;;;;;;2.50;2.30;;;;;;;;;;5054566;28;20472;-75
2021/12/05 02:00:17;;;;;;;3.33;2.23;;;;;;;;;;4991550;28;20448;-75
2021/12/05 02:08:49;;;;;;;2.40;2.27;;;;;;;;;;5053165;28;20507;-75
2021/12/05 02:11:39;;;;;;;2.20;2.00;;;;;;;;;;5053357;28;20445;-76
2021/12/05 02:31:06;;;;;;;3.70;2.73;;;;;;;;;;5052877;28;20519;-77
2021/12/05 02:33:55;;;;;;;2.90;2.30;;;;;;;;;;5052245;28;20442;-76
2021/12/05 02:39:24;;;;;;;2.83;2.50;;;;;;;;;;5052889;28;20492;-75
2021/12/05 02:41:53;;;;;;;2.40;2.08;;;;;;;;;;5052473;28;21119;-75
2021/12/05 02:44:22;;;;;;;2.92;2.20;;;;;;;;;;5052365;28;20349;-76
2021/12/05 02:46:58;;;;;;;2.30;2.10;;;;;;;;;;5052225;28;20217;-76
2021/12/05 02:49:26;;;;;;;2.73;2.13;;;;;;;;;;5056927;28;20191;-74
2021/12/05 02:51:56;;;;;;;4.72;2.10;;;;;;;;;;5052671;28;20441;-75
2021/12/05 02:54:25;;;;;;;2.63;1.87;;;;;;;;;;5052004;28;20570;-75
2021/12/05 02:56:53;;;;;;;4.65;1.98;;;;;;;;;;5052485;28;20457;-75
2021/12/05 02:59:25;;;;;;;3.43;2.10;;;;;;;;;;5052376;28;20206;-75
2021/12/05 03:01:56;;;;;;;4.53;2.00;;;;;;;;;;5052352;28;20453;-74
2021/12/05 03:04:26;;;;;;;3.10;2.30;;;;;;;;;;5052041;28;20483;-74
2021/12/05 03:06:55;;;;;;;4.53;2.17;;;;;;;;;;5051717;28;20991;-76
2021/12/05 03:09:22;;;;;;;6.77;2.40;;;;;;;;;;5051633;28;20445;-75
2021/12/05 03:11:54;;;;;;;2.13;1.90;;;;;;;;;;5052062;28;20439;-76
2021/12/05 03:14:22;;;;;;;3.50;3.20;;;;;;;;;;5051951;28;20469;-75
2021/12/05 03:16:49;;;;;;;3.03;1.90;;;;;;;;;;5052168;28;20454;-76
2021/12/05 03:19:18;;;;;;;2.07;1.90;;;;;;;;;;5052207;28;20940;-74
2021/12/05 03:21:46;;;;;;;2.37;2.13;;;;;;;;;;5052255;28;20444;-75
2021/12/05 03:24:13;;;;;;;5.03;1.67;;;;;;;;;;5052285;28;20466;-75
2021/12/05 03:26:42;;;;;;;2.80;2.60;;;;;;;;;;5051635;28;20446;-76
2021/12/05 03:29:11;;;;;;;5.30;1.93;;;;;;;;;;5052018;28;20489;-76
2021/12/05 03:31:39;;;;;;;2.17;1.97;;;;;;;;;;5052021;28;20450;-76
2021/12/05 03:34:07;;;;;;;3.30;1.70;;;;;;;;;;5052161;28;20542;-75
2021/12/05 03:36:35;;;;;;;3.50;2.20;;;;;;;;;;5052187;28;20488;-75
2021/12/05 03:39:03;;;;;;;2.83;2.07;;;;;;;;;;5052905;28;20974;-76
2021/12/05 03:41:30;;;;;;;3.30;1.70;;;;;;;;;;5053339;28;20478;-78
2021/12/05 03:43:57;;;;;;;2.37;2.03;;;;;;;;;;5053448;28;20473;-77
2021/12/05 03:46:27;;;;;;;1.90;1.80;;;;;;;;;;5054070;28;20511;-74
2021/12/05 03:48:56;;;;;;;3.92;1.80;;;;;;;;;;5053782;28;20453;-75
2021/12/05 03:51:24;;;;;;;1.60;1.50;;;;;;;;;;5053206;28;20201;-76
2021/12/05 03:53:52;;;;;;;5.10;2.23;;;;;;;;;;5052073;28;20471;-75
2021/12/05 03:56:19;;;;;;;7.20;2.30;;;;;;;;;;5052067;28;21004;-74
2021/12/05 03:58:47;;;;;;;6.47;2.50;;;;;;;;;;5052250;28;20442;-75
2021/12/05 04:01:14;;;;;;;2.10;1.90;;;;;;;;;;5052189;28;20454;-75
2021/12/05 04:03:45;;;;;;;2.20;2.10;;;;;;;;;;5052936;28;20472;-75
2021/12/05 04:06:13;;;;;;;3.37;2.20;;;;;;;;;;5052671;28;20438;-74
2021/12/05 04:08:40;;;;;;;1.93;1.70;;;;;;;;;;5052679;28;20508;-73
2021/12/05 04:11:10;;;;;;;4.43;2.47;;;;;;;;;;5052822;28;20477;-74
2021/12/05 04:13:37;;;;;;;3.83;2.47;;;;;;;;;;5052516;28;20769;-75
2021/12/05 04:16:04;;;;;;;3.33;2.17;;;;;;;;;;5052455;28;20889;-76
2021/12/05 04:18:31;;;;;;;6.30;2.17;;;;;;;;;;5052770;28;20440;-75
2021/12/05 04:21:00;;;;;;;3.67;2.37;;;;;;;;;;5061529;28;20437;-75
2021/12/05 04:23:27;;;;;;;1.80;1.70;;;;;;;;;;5062469;28;20468;-77
2021/12/05 04:25:54;;;;;;;3.03;2.07;;;;;;;;;;5062122;28;20447;-75
2021/12/05 04:28:23;;;;;;;2.70;2.25;;;;;;;;;;5062042;28;20448;-77
2021/12/05 04:30:51;;;;;;;2.03;1.90;;;;;;;;;;5061293;28;20322;-75
2021/12/05 04:33:18;;;;;;;2.23;2.10;;;;;;;;;;5058873;28;20437;-74
2021/12/05 04:35:46;;;;;;;3.57;2.37;;;;;;;;;;5058288;28;20483;-74
2021/12/05 04:38:14;;;;;;;2.00;1.70;;;;;;;;;;5064696;28;20446;-74
2021/12/05 04:40:42;;;;;;;2.43;1.93;;;;;;;;;;5066216;28;20450;-74
2021/12/05 04:43:09;;;;;;;2.83;2.20;;;;;;;;;;5069292;28;20460;-75
2021/12/05 04:45:37;;;;;;;7.43;2.23;;;;;;;;;;5062656;28;20470;-75
2021/12/05 04:48:06;;;;;;;7.40;2.83;;;;;;;;;;5056774;28;20940;-73
2021/12/05 04:50:34;;;;;;;2.80;2.17;;;;;;;;;;5054929;28;20445;-75
2021/12/05 04:53:02;;;;;;;3.63;2.00;;;;;;;;;;5054201;28;20564;-73
2021/12/05 04:55:30;;;;;;;1.92;1.75;;;;;;;;;;5054093;28;20936;-76
2021/12/05 04:57:57;;;;;;;2.10;1.90;;;;;;;;;;5054443;28;20197;-75
2021/12/05 05:00:25;;;;;;;3.50;2.50;;;;;;;;;;5054563;28;20896;-74
2021/12/05 05:02:53;;;;;;;1.80;1.53;;;;;;;;;;5054384;28;20766;-74
2021/12/05 05:05:20;;;;;;;3.30;1.80;;;;;;;;;;5054440;28;20459;-74
2021/12/05 05:07:47;;;;;;;6.43;2.10;;;;;;;;;;5054341;28;20727;-74
2021/12/05 05:10:16;;;;;;;2.85;1.60;;;;;;;;;;5054658;28;20494;-75
2021/12/05 05:12:44;;;;;;;2.73;2.20;;;;;;;;;;5053984;28;20551;-76
2021/12/05 05:15:13;;;;;;;5.13;2.83;;;;;;;;;;5054849;28;20872;-75
2021/12/05 05:17:41;;;;;;;5.13;2.80;;;;;;;;;;5055013;28;20474;-75
2021/12/05 05:20:20;;;;;;;2.10;1.90;;;;;;;;;;5055326;28;20442;-76
2021/12/05 05:23:00;;;;;;;2.60;2.03;;;;;;;;;;5054670;28;20537;-74
2021/12/05 05:26:19;;;;;;;7.40;1.80;;;;;;;;;;5054435;28;21050;-74
2021/12/05 05:29:05;;;;;;;1.97;1.80;;;;;;;;;;5056224;28;20769;-74
2021/12/05 05:40:08;;;;;;;1.60;1.50;;;;;;;;;;5057500;28;20250;-77
2021/12/05 05:45:44;;;;;;;3.10;2.10;;;;;;;;;;5052518;28;20473;-76
2021/12/05 05:48:29;;;;;;;3.30;1.80;;;;;;;;;;5036498;28;20447;-74
2021/12/05 05:50:56;;;;;;;2.23;1.80;;;;;;;;;;5035389;28;20438;-76
2021/12/05 05:53:24;;;;;;;1.90;1.80;;;;;;;;;;5034252;28;20538;-74
2021/12/05 05:55:52;;;;;;;3.33;1.70;;;;;;;;;;5033869;28;20860;-77
2021/12/05 05:58:22;;;;;;;3.47;2.50;;;;;;;;;;5034373;28;20508;-76
2021/12/05 06:00:58;;;;;;;8.30;6.13;;;;;;;;;;5034428;28;20455;-74
2021/12/05 06:03:25;;;;;;;3.93;2.00;;;;;;;;;;5034266;28;20537;-74
2021/12/05 06:05:54;;;;;;;2.67;2.20;;;;;;;;;;5034201;28;20945;-74
2021/12/05 06:08:23;;;;;;;4.07;1.98;;;;;;;;;;5034385;28;20478;-75
2021/12/05 06:10:51;;;;;;;2.20;2.00;;;;;;;;;;5034302;28;20192;-74
2021/12/05 06:13:19;;;;;;;3.40;2.37;;;;;;;;;;5032918;28;20478;-74
2021/12/05 06:15:46;;;;;;;2.77;2.00;;;;;;;;;;5033051;28;20681;-75
2021/12/05 06:18:14;;;;;;;2.20;1.63;;;;;;;;;;5033572;28;20493;-75
2021/12/05 06:20:42;;;;;;;2.53;1.73;;;;;;;;;;5033251;28;20456;-75
2021/12/05 06:23:09;;;;;;;2.40;2.20;;;;;;;;;;5032923;28;20456;-74
2021/12/05 06:25:38;;;;;;;1.47;1.47;;;;;;;;;;5032932;28;20879;-76
2021/12/05 06:28:10;;;;;;;3.60;1.70;;;;;;;;;;5034054;28;20462;-74
2021/12/05 06:30:46;;;;;;;2.33;1.80;;;;;;;;;;5033608;28;20454;-76
2021/12/05 06:41:48;;;;;;;2.43;1.70;;;;;;;;;;5017023;28;20428;-74
2021/12/05 06:46:59;;;;;;;2.83;1.80;;;;;;;;;;5003100;28;20723;-75
2021/12/05 06:49:27;;;;;;;1.70;1.60;;;;;;;;;;5032928;28;20469;-74
2021/12/05 06:51:55;;;;;;;7.27;3.50;;;;;;;;;;5032438;28;20438;-75
2021/12/05 06:54:22;;;;;;;2.30;2.10;;;;;;;;;;5032153;28;20858;-74
2021/12/05 06:56:49;;;;;;;4.10;2.00;;;;;;;;;;5032788;28;20560;-79
2021/12/05 06:59:16;;;;;;;29.07;12.93;;;;;;;;;;5032271;28;20553;-75
2021/12/05 07:01:43;;;;;;;4.83;2.67;;;;;;;;;;5032754;28;20491;-77
2021/12/05 07:04:20;;;;;;;3.17;1.70;;;;;;;;;;5032301;28;20601;-77
2021/12/05 07:06:49;;;;;;;3.90;1.77;;;;;;;;;;5032484;28;20443;-76
2021/12/05 07:09:16;;;;;;;2.30;1.73;;;;;;;;;;5032457;28;20451;-75
2021/12/05 07:11:50;;;;;;;5.13;2.20;;;;;;;;;;5031925;28;20450;-75
2021/12/05 07:14:36;;;;;;;1.63;1.57;;;;;;;;;;5032113;28;20831;-77
2021/12/05 07:17:07;;;;;;;3.13;1.90;;;;;;;;;;5032310;28;20509;-76
2021/12/05 07:19:47;;;;;;;4.20;2.47;;;;;;;;;;5031869;28;20481;-73
2021/12/05 07:22:21;;;;;;;2.30;1.63;;;;;;;;;;5031966;28;20450;-74
2021/12/05 07:24:58;;;;;;;2.60;1.70;;;;;;;;;;5032221;28;20472;-74
2021/12/05 07:41:19;;;;;;;3.63;1.50;;;;;;;;;;5032242;28;20731;-75
2021/12/05 07:43:46;;;;;;;3.27;2.10;;;;;;;;;;5031898;28;20468;-74
2021/12/05 07:46:13;;;;;;;1.77;1.48;;;;;;;;;;5032472;28;20462;-75
2021/12/05 07:48:43;;;;;;;5.07;1.50;;;;;;;;;;5032493;28;20297;-74
2021/12/05 07:51:20;;;;;;;2.00;1.80;;;;;;;;;;5032123;28;20544;-75
2021/12/05 07:53:54;;;;;;;1.77;1.67;;;;;;;;;;5042382;28;20232;-76
2021/12/05 07:56:32;;;;;;;1.60;1.50;;;;;;;;;;5053465;28;20489;-79
2021/12/05 07:59:12;;;;;;;6.60;1.90;;;;;;;;;;5054187;28;20444;-78
2021/12/05 08:15:28;;;;;;;2.22;2.03;;;;;;;;;;5054898;28;20449;-77
2021/12/05 08:17:58;;;;;;;1.77;1.67;;;;;;;;;;5053863;28;20436;-74
2021/12/05 08:20:27;;;;;;;2.30;1.80;;;;;;;;;;5053216;28;20452;-75
2021/12/05 08:22:54;;;;;;;5.87;1.60;;;;;;;;;;5052834;28;20432;-74
2021/12/05 08:25:25;;;;;;;2.00;1.63;;;;;;;;;;5052974;28;20458;-76
2021/12/05 08:27:59;;;;;;;1.73;1.63;;;;;;;;;;5052653;28;20917;-76
2021/12/05 08:30:31;;;;;;;5.50;2.37;;;;;;;;;;5052660;28;20530;-75
2021/12/05 08:33:30;;;;;;;3.43;2.20;;;;;;;;;;5051885;28;20513;-76
2021/12/05 08:36:28;;;;;;;2.40;2.07;;;;;;;;;;5051657;28;20482;-77
2021/12/05 08:39:34;;;;;;;1.87;1.60;;;;;;;;;;5051154;28;20446;-76
2021/12/05 08:45:21;;;;;;;3.23;1.83;;;;;;;;;;5050655;28;20222;-75
2021/12/05 09:24:06;;;;;;;3.97;1.57;;;;;;;;;;5032859;28;20471;-75
2021/12/05 09:26:54;;;;;;;4.23;1.87;;;;;;;;;;5054549;28;20474;-76
2021/12/05 09:29:51;;;;;;;2.03;1.60;;;;;;;;;;5054778;28;20446;-74
2021/12/05 09:52:49;;;;;;;1.83;1.60;;;;;;;;;;5054646;28;20194;-77
2021/12/05 10:03:34;;;;;;;1.83;1.40;;;;;;;;;;5053531;28;20429;-76
2021/12/05 10:08:53;;;;;;;3.33;1.63;;;;;;;;;;5053503;28;20420;-76
2021/12/05 10:11:31;;;;;;;2.30;1.53;;;;;;;;;;5053604;28;20826;-76
2021/12/05 10:16:55;;;;;;;1.93;1.40;;;;;;;;;;5053840;28;20216;-75
2021/12/05 10:20:11;;;;;;;1.40;1.30;;;;;;;;;;5053234;28;20509;-77
2021/12/05 10:33:45;;;;;;;2.67;1.40;;;;;;;;;;5052485;28;20494;-75
2021/12/05 10:36:19;;;;;;;1.93;1.83;;;;;;;;;;5052806;28;20510;-76
2021/12/05 10:38:51;;;;;;;1.70;1.60;;;;;;;;;;5052756;28;20430;-75
2021/12/05 10:41:46;;;;;;;1.65;1.55;;;;;;;;;;5053089;28;20446;-75
2021/12/05 10:44:13;;;;;;;1.40;1.30;;;;;;;;;;5052507;28;20280;-77
2021/12/05 10:46:41;;;;;;;1.47;1.37;;;;;;;;;;5052648;28;20446;-77
2021/12/05 10:49:09;;;;;;;2.00;1.37;;;;;;;;;;5052767;28;20446;-75
2021/12/05 10:51:38;;;;;;;0.97;0.97;;;;;;;;;;5052984;28;20460;-77
2021/12/05 10:54:07;;;;;;;1.20;1.20;;;;;;;;;;5052337;28;20821;-76
2021/12/05 10:56:35;;;;;;;1.77;1.20;;;;;;;;;;5052587;28;20485;-75
2021/12/05 10:59:04;;;;;;;1.20;1.00;;;;;;;;;;5053551;28;20446;-76
2021/12/05 11:01:33;;;;;;;2.00;1.77;;;;;;;;;;5053276;28;20445;-77
2021/12/05 11:04:01;;;;;;;1.70;1.60;;;;;;;;;;5052822;28;20448;-76
2021/12/05 11:06:36;;;;;;;1.10;1.10;;;;;;;;;;5053081;28;20447;-76
2021/12/05 11:09:06;;;;;;;2.25;1.05;;;;;;;;;;5053029;28;20443;-75
2021/12/05 11:11:35;;;;;;;1.17;1.10;;;;;;;;;;5053121;28;20668;-76
2021/12/05 11:14:03;;;;;;;1.13;1.10;;;;;;;;;;5052600;28;20479;-78
2021/12/05 11:16:35;;;;;;;1.33;1.23;;;;;;;;;;5052870;28;20488;-79
2021/12/05 11:19:03;;;;;;;2.03;1.20;;;;;;;;;;5053814;28;20464;-76
2021/12/05 11:21:33;;;;;;;1.30;1.20;;;;;;;;;;5052441;28;20449;-76
2021/12/05 11:24:04;;;;;;;1.20;1.10;;;;;;;;;;5053315;28;20503;-75
2021/12/05 11:26:32;;;;;;;1.20;1.10;;;;;;;;;;5053380;28;20440;-77
2021/12/05 11:29:00;;;;;;;3.50;1.33;;;;;;;;;;5052949;28;20441;-77
2021/12/05 11:31:29;;;;;;;0.90;0.90;;;;;;;;;;5052608;28;20951;-79
2021/12/05 11:33:56;;;;;;;1.27;1.17;;;;;;;;;;5051896;28;20527;-75
2021/12/05 11:36:24;;;;;;;1.47;1.30;;;;;;;;;;5052313;28;20454;-75
2021/12/05 11:38:52;;;;;;;1.30;1.20;;;;;;;;;;5051932;28;20949;-77
2021/12/05 11:41:21;;;;;;;2.30;1.43;;;;;;;;;;5052380;28;20445;-78
2021/12/05 11:43:49;;;;;;;4.07;1.35;;;;;;;;;;5051889;28;20560;-75
2021/12/05 11:46:18;;;;;;;2.00;1.60;;;;;;;;;;5051747;28;20219;-76
2021/12/05 11:48:46;;;;;;;1.60;1.50;;;;;;;;;;5051821;28;20872;-77
2021/12/05 11:51:27;;;;;;;2.33;1.77;;;;;;;;;;5051815;28;20979;-76
2021/12/05 11:53:56;;;;;;;1.43;1.30;;;;;;;;;;5051570;28;20493;-77
2021/12/05 11:56:36;;;;;;;1.37;1.27;;;;;;;;;;5052505;28;20515;-76
2021/12/05 11:59:08;;;;;;;1.27;1.27;;;;;;;;;;5057944;28;20441;-75
2021/12/05 12:01:37;;;;;;;1.50;1.40;;;;;;;;;;5059242;28;20443;-76
2021/12/05 12:04:05;;;;;;;1.63;1.53;;;;;;;;;;5058505;28;20469;-76
2021/12/05 12:06:32;;;;;;;1.73;1.50;;;;;;;;;;5058412;28;20502;-75
2021/12/05 12:08:59;;;;;;;1.63;1.33;;;;;;;;;;5053922;28;20450;-75
2021/12/05 12:11:26;;;;;;;2.00;1.60;;;;;;;;;;5056812;28;20567;-76
2021/12/05 12:13:54;;;;;;;3.20;1.47;;;;;;;;;;5057033;28;20504;-75
2021/12/05 12:16:22;;;;;;;1.50;1.40;;;;;;;;;;5053733;28;20484;-76
2021/12/05 12:18:52;;;;;;;1.57;1.47;;;;;;;;;;5051006;28;20468;-75
2021/12/05 12:21:20;;;;;;;1.83;1.70;;;;;;;;;;5051013;28;20478;-75
2021/12/05 12:23:48;;;;;;;1.37;1.27;;;;;;;;;;5050831;28;20458;-75
2021/12/05 12:26:15;;;;;;;3.47;2.00;;;;;;;;;;5051044;28;20588;-75
2021/12/05 12:28:43;;;;;;;2.30;1.97;;;;;;;;;;5051265;28;20446;-75
2021/12/05 12:31:12;;;;;;;2.30;2.20;;;;;;;;;;5052383;28;20445;-75
2021/12/05 12:33:42;;;;;;;2.20;1.67;;;;;;;;;;5051238;28;20521;-76
2021/12/05 12:36:11;;;;;;;2.23;2.00;;;;;;;;;;5052810;28;20449;-76
2021/12/05 12:38:39;;;;;;;1.50;1.30;;;;;;;;;;5052626;28;20473;-76
2021/12/05 12:41:15;;;;;;;1.95;1.40;;;;;;;;;;5054795;28;21000;-75
2021/12/05 12:43:44;;;;;;;2.10;1.53;;;;;;;;;;5055275;28;20203;-76
2021/12/05 12:46:20;;;;;;;1.60;1.50;;;;;;;;;;5054800;28;20457;-75
2021/12/05 12:48:48;;;;;;;1.50;1.40;;;;;;;;;;5054592;28;20460;-77
2021/12/05 12:51:27;;;;;;;1.57;1.40;;;;;;;;;;5056106;28;20441;-77
2021/12/05 12:53:55;;;;;;;2.65;1.38;;;;;;;;;;5054493;28;20461;-78
2021/12/05 12:56:23;;;;;;;1.30;1.20;;;;;;;;;;5055881;28;20199;-77
2021/12/05 12:58:53;;;;;;;1.42;1.25;;;;;;;;;;5055911;28;20235;-75
2021/12/05 13:01:39;;;;;;;2.08;1.23;;;;;;;;;;5057548;28;20233;-77
2021/12/05 13:04:34;;;;;;;0.90;0.90;;;;;;;;;;5055854;28;20225;-78
2021/12/05 13:07:23;;;;;;;1.77;1.67;;;;;;;;;;5054219;28;20999;-78
2021/12/05 13:10:08;;;;;;;1.10;1.10;;;;;;;;;;5054350;28;20199;-77
2021/12/05 13:12:49;;;;;;;2.37;1.07;;;;;;;;;;5054230;28;20947;-76
2021/12/05 13:15:17;;;;;;;2.43;1.27;;;;;;;;;;5055646;28;20828;-77
2021/12/05 13:17:45;;;;;;;1.10;1.10;;;;;;;;;;5054733;28;20477;-75
2021/12/05 13:20:15;;;;;;;0.98;0.80;;;;;;;;;;5054318;28;20515;-76
2021/12/05 13:23:01;;;;;;;1.03;1.03;;;;;;;;;;5054202;28;20208;-76
2021/12/05 13:25:28;;;;;;;1.20;1.20;;;;;;;;;;5054245;28;20484;-77
2021/12/05 13:27:56;;;;;;;1.10;1.00;;;;;;;;;;5054674;28;20442;-77
2021/12/05 13:30:31;;;;;;;1.00;0.90;;;;;;;;;;5055985;28;20663;-77
2021/12/05 13:33:17;;;;;;;1.93;0.83;;;;;;;;;;5053914;28;20806;-75
2021/12/05 13:35:45;;;;;;;1.20;1.07;;;;;;;;;;5054072;28;20472;-76
2021/12/05 13:38:28;;;;;;;1.00;1.00;;;;;;;;;;5054162;28;20895;-75
2021/12/05 13:40:56;;;;;;;1.20;1.20;;;;;;;;;;5054834;28;20446;-76
2021/12/05 13:43:28;;;;;;;1.40;1.30;;;;;;;;;;5063352;28;20446;-76
2021/12/05 13:45:57;;;;;;;1.50;1.23;;;;;;;;;;5072491;28;20213;-76
2021/12/05 13:48:26;;;;;;;1.20;1.20;;;;;;;;;;5076681;28;20469;-81
2021/12/05 13:50:56;;;;;;;2.60;1.00;;;;;;;;;;5079441;28;20437;-81
2021/12/05 13:53:28;;;;;;;1.67;1.00;;;;;;;;;;5078551;28;20441;-80
2021/12/05 13:56:11;;;;;;;1.20;1.10;;;;;;;;;;5078920;28;20456;-82
2021/12/05 13:58:40;;;;;;;1.30;1.20;;;;;;;;;;5078945;28;20493;-79
2021/12/05 14:01:10;;;;;;;1.43;1.30;;;;;;;;;;5079223;28;20553;-82
2021/12/05 14:03:42;;;;;;;1.40;1.30;;;;;;;;;;5078945;28;20463;-82
2021/12/05 14:06:29;;;;;;;1.00;1.00;;;;;;;;;;5078747;28;20437;-81
2021/12/05 14:08:58;;;;;;;1.33;1.10;;;;;;;;;;5078907;28;20429;-79
2021/12/05 14:11:27;;;;;;;1.67;0.95;;;;;;;;;;5076614;28;20483;-79
2021/12/05 14:13:54;;;;;;;1.07;1.07;;;;;;;;;;5056827;28;20223;-75
2021/12/05 14:16:22;;;;;;;3.10;1.30;;;;;;;;;;5056031;28;20445;-76
2021/12/05 14:18:49;;;;;;;1.63;1.53;;;;;;;;;;5055676;28;20718;-75
2021/12/05 14:21:17;;;;;;;1.80;1.70;;;;;;;;;;5055821;28;20456;-75
2021/12/05 14:23:48;;;;;;;1.50;1.40;;;;;;;;;;5055129;28;20485;-76
2021/12/05 14:26:15;;;;;;;2.53;1.40;;;;;;;;;;5053425;28;20509;-75
2021/12/05 14:28:44;;;;;;;1.53;1.43;;;;;;;;;;5053372;28;20445;-74
2021/12/05 14:31:11;;;;;;;2.00;1.90;;;;;;;;;;5052994;28;20460;-75
2021/12/05 14:33:51;;;;;;;2.33;2.22;;;;;;;;;;5052853;28;20445;-76
2021/12/05 14:36:21;;;;;;;2.90;1.93;;;;;;;;;;5053041;28;20728;-75
2021/12/05 14:38:48;;;;;;;1.90;1.80;;;;;;;;;;5053111;28;20540;-76
2021/12/05 14:41:15;;;;;;;1.90;1.80;;;;;;;;;;5053066;28;20453;-77
2021/12/05 14:43:55;;;;;;;2.13;2.03;;;;;;;;;;5052979;28;20470;-75
2021/12/05 14:46:22;;;;;;;2.20;1.75;;;;;;;;;;5053267;28;20462;-76
2021/12/05 14:48:55;;;;;;;4.13;1.93;;;;;;;;;;5053104;28;20202;-75
2021/12/05 14:51:32;;;;;;;2.83;2.17;;;;;;;;;;5054115;28;20459;-76
2021/12/05 14:53:59;;;;;;;1.70;1.60;;;;;;;;;;5052312;28;20465;-76
2021/12/05 14:56:29;;;;;;;2.20;2.03;;;;;;;;;;5052623;28;20206;-76
2021/12/05 14:59:04;;;;;;;2.37;2.17;;;;;;;;;;5053339;28;21043;-78
2021/12/05 15:01:31;;;;;;;2.27;2.10;;;;;;;;;;5053952;28;20442;-77
2021/12/05 15:03:59;;;;;;;2.97;2.30;;;;;;;;;;5055496;28;20695;-75
2021/12/05 15:06:34;;;;;;;3.17;2.20;;;;;;;;;;5056495;28;20518;-75
2021/12/05 15:09:01;;;;;;;2.30;2.10;;;;;;;;;;5053606;28;20442;-79
2021/12/05 15:11:28;;;;;;;1.90;1.80;;;;;;;;;;5052724;28;20635;-76
2021/12/05 15:14:03;;;;;;;2.43;2.10;;;;;;;;;;5052152;28;20491;-79
2021/12/05 15:16:31;;;;;;;3.83;2.10;;;;;;;;;;5052314;28;20438;-75
2021/12/05 15:18:58;;;;;;;3.80;2.30;;;;;;;;;;5055011;28;20478;-75
2021/12/05 15:21:27;;;;;;;2.40;2.20;;;;;;;;;;5058065;28;20461;-76
2021/12/05 15:23:55;;;;;;;2.20;2.07;;;;;;;;;;5052213;28;20897;-74
2021/12/05 15:26:22;;;;;;;2.80;2.60;;;;;;;;;;5052495;28;20559;-75
2021/12/05 15:28:49;;;;;;;2.80;2.47;;;;;;;;;;5053827;28;20454;-74
2021/12/05 15:31:18;;;;;;;11.23;3.57;;;;;;;;;;5052336;28;20480;-78
2021/12/05 15:33:46;;;;;;;2.67;2.57;;;;;;;;;;5051830;28;20458;-75
2021/12/05 15:36:13;;;;;;;3.10;2.90;;;;;;;;;;5052082;28;20454;-76
2021/12/05 15:38:40;;;;;;;2.80;2.60;;;;;;;;;;5051809;28;20477;-75
2021/12/05 15:41:09;;;;;;;3.53;3.17;;;;;;;;;;5052146;28;20437;-75
2021/12/05 15:43:37;;;;;;;3.00;2.80;;;;;;;;;;5051565;28;20936;-76
2021/12/05 15:46:11;;;;;;;3.30;3.00;;;;;;;;;;5051644;28;20465;-75
2021/12/05 15:48:39;;;;;;;2.57;2.47;;;;;;;;;;5051912;28;20430;-75
2021/12/05 15:51:07;;;;;;;2.67;2.47;;;;;;;;;;5051721;28;20977;-76
2021/12/05 15:53:35;;;;;;;3.33;2.10;;;;;;;;;;5051349;28;20441;-76
2021/12/05 15:56:03;;;;;;;3.83;2.60;;;;;;;;;;5051645;28;20854;-77
2021/12/05 15:58:31;;;;;;;4.30;3.27;;;;;;;;;;5051476;28;20543;-76
2021/12/05 16:01:00;;;;;;;3.50;3.20;;;;;;;;;;5051495;28;21024;-76
2021/12/05 16:03:28;;;;;;;2.97;2.77;;;;;;;;;;5051344;28;20476;-77
2021/12/05 16:05:58;;;;;;;3.60;3.40;;;;;;;;;;5051541;28;20453;-75
2021/12/05 16:08:28;;;;;;;2.70;2.50;;;;;;;;;;5052139;28;20715;-75
2021/12/05 16:10:58;;;;;;;3.00;2.80;;;;;;;;;;5051917;28;20437;-76
2021/12/05 16:13:27;;;;;;;2.90;2.70;;;;;;;;;;5051944;28;20540;-76
2021/12/05 16:15:55;;;;;;;3.00;2.80;;;;;;;;;;5055135;28;20422;-75
2021/12/05 16:18:31;;;;;;;3.03;2.83;;;;;;;;;;5055767;28;20477;-75
2021/12/05 16:21:05;;;;;;;3.83;2.73;;;;;;;;;;5056145;28;20452;-77
2021/12/05 16:23:32;;;;;;;2.97;2.60;;;;;;;;;;5055796;28;20442;-75
2021/12/05 16:26:05;;;;;;;3.10;2.67;;;;;;;;;;5046416;28;20454;-74
2021/12/05 16:28:34;;;;;;;3.27;2.80;;;;;;;;;;5050345;28;20449;-76
2021/12/05 16:31:03;;;;;;;2.57;2.47;;;;;;;;;;5063052;28;20430;-76
2021/12/05 16:33:31;;;;;;;4.40;2.87;;;;;;;;;;5063001;28;20483;-75
2021/12/05 16:36:00;;;;;;;3.20;2.83;;;;;;;;;;5060915;28;20439;-77
2021/12/05 16:38:29;;;;;;;3.70;3.40;;;;;;;;;;5072531;28;20470;-78
2021/12/05 16:41:11;;;;;;;4.80;4.37;;;;;;;;;;5070386;28;20438;-77
2021/12/05 16:43:39;;;;;;;5.30;4.80;;;;;;;;;;5073349;28;20453;-79
2021/12/05 16:46:08;;;;;;;5.88;5.22;;;;;;;;;;5061953;28;20513;-79
2021/12/05 16:48:36;;;;;;;5.70;5.20;;;;;;;;;;5058873;28;20172;-79
2021/12/05 16:51:27;;;;;;;5.20;4.70;;;;;;;;;;5059454;28;20447;-80
2021/12/05 16:54:00;;;;;;;5.33;4.67;;;;;;;;;;5050872;28;20474;-79
2021/12/05 16:56:41;;;;;;;6.60;5.13;;;;;;;;;;5068299;28;20453;-77
2021/12/05 16:59:09;;;;;;;4.83;4.43;;;;;;;;;;5059028;28;20487;-77
2021/12/05 17:01:36;;;;;;;5.80;5.30;;;;;;;;;;5057442;28;20445;-76
2021/12/05 17:04:03;;;;;;;4.77;3.80;;;;;;;;;;5057856;28;20466;-77
2021/12/05 17:06:43;;;;;;;4.90;4.40;;;;;;;;;;5056208;28;20506;-76
2021/12/05 17:09:12;;;;;;;4.93;4.50;;;;;;;;;;5056634;28;20435;-76
2021/12/05 17:11:39;;;;;;;5.33;4.87;;;;;;;;;;5056221;28;20471;-76
2021/12/05 17:14:07;;;;;;;4.40;4.13;;;;;;;;;;5055699;28;20465;-77
2021/12/05 17:16:39;;;;;;;5.60;5.10;;;;;;;;;;5055537;28;20437;-77
2021/12/05 17:19:08;;;;;;;5.57;5.07;;;;;;;;;;5054913;28;20913;-75
2021/12/05 17:21:36;;;;;;;5.47;5.07;;;;;;;;;;5055079;28;20946;-75
2021/12/05 17:24:09;;;;;;;6.17;5.57;;;;;;;;;;5054780;28;20470;-75
2021/12/05 17:26:38;;;;;;;7.97;7.18;;;;;;;;;;5053413;28;20536;-76
2021/12/05 17:29:07;;;;;;;8.77;7.93;;;;;;;;;;5055008;28;20200;-75
2021/12/05 17:31:38;;;;;;;15.07;10.88;;;;;;;;;;5055212;28;20441;-75
2021/12/05 17:34:07;;;;;;;12.77;8.70;;;;;;;;;;5053724;28;20282;-77
2021/12/05 17:36:35;;;;;;;14.43;8.93;;;;;;;;;;5054067;28;20444;-76
2021/12/05 17:39:07;;;;;;;12.43;9.57;;;;;;;;;;5054775;28;20313;-76
2021/12/05 17:41:34;;;;;;;21.50;14.80;;;;;;;;;;5054682;28;20449;-76
2021/12/05 17:44:03;;;;;;;13.50;11.33;;;;;;;;;;5054130;28;20273;-75
2021/12/05 17:46:31;;;;;;;13.67;11.90;;;;;;;;;;5055031;28;20449;-75
2021/12/05 17:48:59;;;;;;;12.57;10.77;;;;;;;;;;5054229;28;20975;-75
2021/12/05 17:51:33;;;;;;;11.53;9.57;;;;;;;;;;5053613;28;20445;-74
2021/12/05 17:54:00;;;;;;;8.75;7.60;;;;;;;;;;5053410;28;20469;-76
2021/12/05 17:56:37;;;;;;;8.50;7.70;;;;;;;;;;5053963;28;20199;-76
2021/12/05 17:59:12;;;;;;;17.17;13.43;;;;;;;;;;5053475;28;20480;-75
2021/12/05 18:04:21;;;;;;;21.47;17.97;;;;;;;;;;5019735;28;20449;-76
2021/12/05 18:06:48;;;;;;;7.53;6.77;;;;;;;;;;5053570;28;20441;-75
2021/12/05 18:09:15;;;;;;;6.30;5.80;;;;;;;;;;5053620;28;20437;-75
2021/12/05 18:11:42;;;;;;;4.63;4.23;;;;;;;;;;5053803;28;20446;-73
2021/12/05 18:14:11;;;;;;;5.47;5.07;;;;;;;;;;5053429;28;21014;-78
2021/12/05 18:16:39;;;;;;;6.85;6.25;;;;;;;;;;5054567;28;20199;-76
2021/12/05 18:19:07;;;;;;;10.23;9.00;;;;;;;;;;5054620;28;20698;-74
2021/12/05 18:21:36;;;;;;;13.67;10.60;;;;;;;;;;5054328;28;20450;-75
2021/12/05 18:24:04;;;;;;;7.30;6.70;;;;;;;;;;5053761;28;20466;-75
2021/12/05 18:26:31;;;;;;;7.07;6.37;;;;;;;;;;5054207;28;20437;-75
2021/12/05 18:28:59;;;;;;;9.70;8.60;;;;;;;;;;5054708;28;20442;-77
2021/12/05 18:31:28;;;;;;;10.63;9.70;;;;;;;;;;5053763;28;20852;-76
2021/12/05 18:33:57;;;;;;;8.37;7.57;;;;;;;;;;5053463;28;20999;-74
2021/12/05 18:36:25;;;;;;;6.87;6.20;;;;;;;;;;5052960;28;20921;-75
2021/12/05 18:38:52;;;;;;;5.30;4.80;;;;;;;;;;5053127;28;20567;-74
2021/12/05 18:41:19;;;;;;;7.63;6.07;;;;;;;;;;5052790;28;20456;-75
2021/12/05 18:43:48;;;;;;;6.77;6.20;;;;;;;;;;5052445;28;20976;-75
2021/12/05 18:46:15;;;;;;;7.03;6.33;;;;;;;;;;5052676;28;20454;-76
2021/12/05 18:48:46;;;;;;;7.60;6.90;;;;;;;;;;5052771;28;20512;-76
2021/12/05 18:51:13;;;;;;;7.13;6.40;;;;;;;;;;5052965;28;20481;-76